createdAt,value
2019-03-06T00:02:17.016Z,10.64
2019-03-06T00:04:46.939Z,10.53
2019-03-06T00:07:16.903Z,10.51
2019-03-06T00:09:46.717Z,10.40
2019-03-06T00:12:16.797Z,10.30
2019-03-06T00:14:46.541Z,10.18
2019-03-06T00:17:16.540Z,10.06
2019-03-06T00:19:46.371Z,9.98
2019-03-06T00:22:16.171Z,10.05
2019-03-06T00:24:46.147Z,10.00
2019-03-06T00:27:15.798Z,9.96
2019-03-06T00:29:45.511Z,9.93
2019-03-06T00:32:15.168Z,9.76
2019-03-06T00:34:45.048Z,9.68
2019-03-06T00:37:15.061Z,9.63
2019-03-06T00:39:52.788Z,9.51
2019-03-06T00:42:22.478Z,9.44
2019-03-06T00:44:52.564Z,9.41
2019-03-06T00:47:22.572Z,9.43
2019-03-06T00:49:52.553Z,9.51
2019-03-06T00:52:22.369Z,9.42
2019-03-06T00:54:52.209Z,9.36
2019-03-06T00:57:21.971Z,9.38
2019-03-06T00:59:51.633Z,9.36
2019-03-06T01:02:21.524Z,9.31
2019-03-06T01:04:51.441Z,9.16
2019-03-06T01:07:21.274Z,9.17
2019-03-06T01:09:51.170Z,9.20
2019-03-06T01:12:21.196Z,9.15
2019-03-06T01:14:51.106Z,9.09
2019-03-06T01:17:20.904Z,9.02
2019-03-06T01:19:50.792Z,8.98
2019-03-06T01:22:21.221Z,8.93
2019-03-06T01:24:50.959Z,8.89
2019-03-06T01:27:20.688Z,8.84
2019-03-06T01:29:50.691Z,8.81
2019-03-06T01:32:20.903Z,8.90
2019-03-06T01:35:04.251Z,8.98
2019-03-06T01:37:56.004Z,9.04
2019-03-06T01:40:44.036Z,9.07
2019-03-06T01:43:32.784Z,9.09
2019-03-06T01:46:02.828Z,9.15
2019-03-06T01:48:32.632Z,9.08
2019-03-06T01:51:03.453Z,9.17
2019-03-06T01:53:33.499Z,9.14
2019-03-06T01:56:03.376Z,9.24
2019-03-06T01:58:33.077Z,9.25
2019-03-06T02:01:02.969Z,9.29
2019-03-06T02:03:32.661Z,9.30
2019-03-06T02:06:02.838Z,9.24
2019-03-06T02:08:32.861Z,9.14
2019-03-06T02:11:03.167Z,9.14
2019-03-06T02:13:32.938Z,9.09
2019-03-06T02:16:02.839Z,9.13
2019-03-06T02:18:32.754Z,9.09
2019-03-06T02:21:02.598Z,9.04
2019-03-06T02:23:32.492Z,9.04
2019-03-06T02:26:03.517Z,9.09
2019-03-06T02:28:33.459Z,9.08
2019-03-06T02:31:03.317Z,9.10
2019-03-06T02:33:33.194Z,9.16
2019-03-06T02:36:03.085Z,9.12
2019-03-06T02:38:33.161Z,9.06
2019-03-06T02:41:02.923Z,9.13
2019-03-06T02:43:32.734Z,9.16
2019-03-06T02:46:02.491Z,9.25
2019-03-06T02:48:32.252Z,9.06
2019-03-06T02:51:02.193Z,9.20
2019-03-06T02:53:33.163Z,9.25
2019-03-06T02:56:03.182Z,9.29
2019-03-06T02:58:58.101Z,9.21
2019-03-06T03:01:45.399Z,9.17
2019-03-06T03:04:37.744Z,9.25
2019-03-06T03:07:16.638Z,9.26
2019-03-06T03:09:46.572Z,9.33
2019-03-06T03:12:16.395Z,9.34
2019-03-06T03:14:46.328Z,9.38
2019-03-06T03:17:16.182Z,9.32
2019-03-06T03:19:45.929Z,9.26
2019-03-06T03:22:15.759Z,9.28
2019-03-06T03:24:45.722Z,9.28
2019-03-06T03:27:16.047Z,9.31
2019-03-06T03:29:45.802Z,9.23
2019-03-06T03:32:15.737Z,9.16
2019-03-06T03:34:45.718Z,9.02
2019-03-06T03:37:15.473Z,9.11
2019-03-06T03:39:45.166Z,9.05
2019-03-06T03:42:15.132Z,9.06
2019-03-06T03:44:45.300Z,8.96
2019-03-06T03:47:15.138Z,8.98
2019-03-06T03:49:45.212Z,9.01
2019-03-06T03:52:14.969Z,9.03
2019-03-06T03:54:44.765Z,9.02
2019-03-06T03:57:14.959Z,8.98
2019-03-06T03:59:44.796Z,9.00
2019-03-06T04:02:14.670Z,9.06
2019-03-06T04:04:44.434Z,9.09
2019-03-06T04:07:14.244Z,9.12
2019-03-06T04:09:44.121Z,9.05
2019-03-06T04:12:13.999Z,9.06
2019-03-06T04:14:43.704Z,9.08
2019-03-06T04:17:13.781Z,9.13
2019-03-06T04:19:43.660Z,9.18
2019-03-06T04:22:13.661Z,9.18
2019-03-06T04:24:44.391Z,9.11
2019-03-06T04:27:14.593Z,9.03
2019-03-06T04:29:44.328Z,8.82
2019-03-06T04:32:14.123Z,8.71
2019-03-06T04:34:44.108Z,8.63
2019-03-06T04:37:13.861Z,8.56
2019-03-06T04:39:43.799Z,8.48
2019-03-06T04:42:13.780Z,8.34
2019-03-06T04:44:43.609Z,8.32
2019-03-06T04:47:13.422Z,8.31
2019-03-06T04:49:52.269Z,8.30
2019-03-06T04:52:14.745Z,8.33
2019-03-06T04:54:44.529Z,8.36
2019-03-06T04:57:14.472Z,8.36
2019-03-06T04:59:44.256Z,8.36
2019-03-06T05:02:14.082Z,8.35
2019-03-06T05:04:43.910Z,8.38
2019-03-06T05:07:13.738Z,8.41
2019-03-06T05:09:43.698Z,8.38
2019-03-06T05:12:13.417Z,8.38
2019-03-06T05:14:43.278Z,8.42
2019-03-06T05:17:31.938Z,8.47
2019-03-06T05:20:01.719Z,8.63
2019-03-06T05:22:31.571Z,8.67
2019-03-06T05:25:01.454Z,8.73
2019-03-06T05:27:32.411Z,8.81
2019-03-06T05:30:02.387Z,8.88
2019-03-06T05:32:36.878Z,8.97
2019-03-06T05:35:16.063Z,8.96
2019-03-06T05:37:58.732Z,9.04
2019-03-06T05:40:28.472Z,8.98
2019-03-06T05:42:58.304Z,9.00
2019-03-06T05:45:28.244Z,9.02
2019-03-06T05:47:58.016Z,9.08
2019-03-06T05:50:28.057Z,9.17
2019-03-06T05:52:57.951Z,9.23
2019-03-06T05:55:27.786Z,9.21
2019-03-06T05:57:57.737Z,9.21
2019-03-06T06:00:28.114Z,9.29
2019-03-06T06:02:57.925Z,9.18
2019-03-06T06:05:27.838Z,9.20
2019-03-06T06:07:57.517Z,9.18
2019-03-06T06:10:27.183Z,9.18
2019-03-06T06:12:59.353Z,9.04
2019-03-06T06:15:29.217Z,8.86
2019-03-06T06:17:58.997Z,8.77
2019-03-06T06:20:28.702Z,8.77
2019-03-06T06:23:36.049Z,8.96
2019-03-06T06:26:05.816Z,8.92
2019-03-06T06:28:35.629Z,8.96
2019-03-06T06:31:06.765Z,8.86
2019-03-06T06:33:36.575Z,8.87
2019-03-06T06:36:06.479Z,9.02
2019-03-06T06:38:37.526Z,9.08
2019-03-06T06:41:07.653Z,9.25
2019-03-06T06:43:37.555Z,9.33
2019-03-06T06:46:08.540Z,9.44
2019-03-06T06:48:38.423Z,9.38
2019-03-06T06:51:13.323Z,9.48
2019-03-06T06:54:00.160Z,9.54
2019-03-06T06:56:41.400Z,9.71
2019-03-06T06:59:24.998Z,9.81
2019-03-06T07:02:47.028Z,9.92
2019-03-06T07:05:34.348Z,10.06
2019-03-06T07:08:23.419Z,10.23
2019-03-06T07:11:15.354Z,10.12
2019-03-06T07:14:04.089Z,10.05
2019-03-06T07:16:58.945Z,10.33
2019-03-06T07:19:50.951Z,10.64
2019-03-06T07:22:39.688Z,10.90
2019-03-06T07:25:23.780Z,11.22
2019-03-06T07:28:18.661Z,11.46
2019-03-06T07:31:13.437Z,11.39
2019-03-06T07:33:49.240Z,11.19
2019-03-06T07:36:36.755Z,11.35
2019-03-06T07:39:27.364Z,11.64
2019-03-06T07:42:31.217Z,11.93
2019-03-06T07:46:00.593Z,12.08
2019-03-06T07:49:00.900Z,12.15
2019-03-06T07:51:39.929Z,11.98
2019-03-06T07:54:26.536Z,12.07
2019-03-06T07:57:00.206Z,12.01
2019-03-06T07:59:29.968Z,12.04
2019-03-06T08:02:03.352Z,11.94
2019-03-06T08:04:33.231Z,12.00
2019-03-06T08:07:16.308Z,11.87
2019-03-06T08:09:46.563Z,11.95
2019-03-06T08:12:34.840Z,11.99
2019-03-06T08:15:22.773Z,11.90
2019-03-06T08:18:00.734Z,11.82
2019-03-06T08:20:46.163Z,11.78
2019-03-06T08:23:33.825Z,11.79
2019-03-06T08:26:03.912Z,11.77
2019-03-06T08:28:33.656Z,11.91
2019-03-06T08:31:25.456Z,11.82
2019-03-06T08:33:55.388Z,11.96
2019-03-06T08:36:25.205Z,12.26
2019-03-06T08:38:55.072Z,12.59
2019-03-06T08:41:24.846Z,12.44
2019-03-06T08:43:54.673Z,12.49
2019-03-06T08:46:42.327Z,12.79
2019-03-06T08:49:28.155Z,13.06
2019-03-06T08:52:07.290Z,13.25
2019-03-06T08:55:02.117Z,13.25
2019-03-06T08:58:03.231Z,13.33
2019-03-06T09:00:50.726Z,13.25
2019-03-06T09:03:39.395Z,13.74
2019-03-06T09:06:24.858Z,13.53
2019-03-06T09:09:13.909Z,13.28
2019-03-06T09:12:06.039Z,13.20
2019-03-06T09:14:58.394Z,13.28
2019-03-06T09:17:46.217Z,13.34
2019-03-06T09:20:39.009Z,13.68
2019-03-06T09:23:29.099Z,13.63
2019-03-06T09:26:13.558Z,13.43
2019-03-06T09:29:08.133Z,13.36
2019-03-06T09:32:04.346Z,12.92
2019-03-06T09:34:59.077Z,12.98
2019-03-06T09:37:53.844Z,13.10
2019-03-06T09:40:33.723Z,13.16
2019-03-06T09:43:25.525Z,13.18
2019-03-06T09:46:09.491Z,13.15
2019-03-06T09:48:51.052Z,13.40
2019-03-06T09:51:33.377Z,13.27
2019-03-06T09:54:24.895Z,13.52
2019-03-06T09:57:03.868Z,13.68
2019-03-06T09:59:42.861Z,13.71
2019-03-06T10:02:32.254Z,13.62
2019-03-06T10:05:24.168Z,13.84
2019-03-06T10:08:15.656Z,14.23
2019-03-06T10:11:07.173Z,14.35
2019-03-06T10:14:08.104Z,14.22
2019-03-06T10:16:49.241Z,14.73
2019-03-06T10:19:29.623Z,14.61
2019-03-06T10:21:59.786Z,14.60
2019-03-06T10:24:29.571Z,14.64
2019-03-06T10:26:59.471Z,14.74
2019-03-06T10:29:29.358Z,14.90
2019-03-06T10:31:59.334Z,14.97
2019-03-06T10:34:29.516Z,15.07
2019-03-06T10:36:59.456Z,15.22
2019-03-06T10:39:29.304Z,15.23
2019-03-06T10:41:59.171Z,15.39
2019-03-06T10:44:30.032Z,15.06
2019-03-06T10:46:59.909Z,15.10
2019-03-06T10:49:29.825Z,15.30
2019-03-06T10:51:59.800Z,15.47
2019-03-06T10:54:29.635Z,15.47
2019-03-06T10:56:59.560Z,15.46
2019-03-06T10:59:29.446Z,15.61
2019-03-06T11:01:59.220Z,15.69
2019-03-06T11:04:54.085Z,15.53
2019-03-06T11:07:24.251Z,15.63
2019-03-06T11:09:55.418Z,15.60
2019-03-06T11:12:25.428Z,15.54
2019-03-06T11:14:55.217Z,15.65
2019-03-06T11:17:25.157Z,15.66
2019-03-06T11:19:55.803Z,16.04
2019-03-06T11:22:25.808Z,15.98
2019-03-06T11:24:56.163Z,15.84
2019-03-06T11:27:26.053Z,15.98
2019-03-06T11:29:55.839Z,16.04
2019-03-06T11:32:25.640Z,16.13
2019-03-06T11:34:55.554Z,15.83
2019-03-06T11:37:25.494Z,15.91
2019-03-06T11:39:55.203Z,15.79
2019-03-06T11:42:25.514Z,16.00
2019-03-06T11:44:55.239Z,16.05
2019-03-06T11:47:25.575Z,15.78
2019-03-06T11:49:55.332Z,15.87
2019-03-06T11:52:25.232Z,16.10
2019-03-06T11:54:55.029Z,16.16
2019-03-06T11:57:25.081Z,16.21
2019-03-06T11:59:54.856Z,16.44
2019-03-06T12:02:24.933Z,16.59
2019-03-06T12:04:54.802Z,16.57
2019-03-06T12:07:24.764Z,16.50
2019-03-06T12:09:54.863Z,16.78
2019-03-06T12:12:24.859Z,17.05
2019-03-06T12:14:56.118Z,16.93
2019-03-06T12:17:26.123Z,16.94
2019-03-06T12:19:56.116Z,16.73
2019-03-06T12:22:26.110Z,17.10
2019-03-06T12:24:56.626Z,17.10
2019-03-06T12:27:26.449Z,17.16
2019-03-06T12:29:56.381Z,17.42
2019-03-06T12:32:27.243Z,17.50
2019-03-06T12:34:57.519Z,17.41
2019-03-06T12:37:28.472Z,17.39
2019-03-06T12:39:58.224Z,17.31
2019-03-06T12:42:28.240Z,17.07
2019-03-06T12:44:58.114Z,16.94
2019-03-06T12:47:28.186Z,16.94
2019-03-06T12:50:05.461Z,17.08
2019-03-06T12:52:30.925Z,17.29
2019-03-06T12:55:01.024Z,17.45
2019-03-06T12:57:30.929Z,17.13
2019-03-06T13:00:00.888Z,17.39
2019-03-06T13:02:30.658Z,17.27
2019-03-06T13:05:00.375Z,17.09
2019-03-06T13:07:30.382Z,16.94
2019-03-06T13:10:00.476Z,17.01
2019-03-06T13:12:30.421Z,16.99
2019-03-06T13:15:01.473Z,16.97
2019-03-06T13:17:31.298Z,17.06
2019-03-06T13:20:01.195Z,17.17
2019-03-06T13:22:31.267Z,17.17
2019-03-06T13:25:01.024Z,16.92
2019-03-06T13:27:30.950Z,16.84
2019-03-06T13:30:00.910Z,16.96
2019-03-06T13:32:42.535Z,16.78
2019-03-06T13:35:13.840Z,16.72
2019-03-06T13:37:43.630Z,16.69
2019-03-06T13:40:18.609Z,16.83
2019-03-06T13:42:46.549Z,17.06
2019-03-06T13:45:16.558Z,17.74
2019-03-06T13:47:46.373Z,17.60
2019-03-06T13:50:16.537Z,17.71
2019-03-06T13:53:27.409Z,17.41
2019-03-06T13:56:33.351Z,17.77
2019-03-06T13:59:42.825Z,17.92
2019-03-06T14:06:05.305Z,18.24
2019-03-06T14:09:30.572Z,18.15
2019-03-06T14:12:20.602Z,17.69
2019-03-06T14:15:20.161Z,17.86
2019-03-06T14:19:00.669Z,17.51
2019-03-06T14:22:11.620Z,17.11
2019-03-06T14:25:22.200Z,16.81
2019-03-06T14:28:39.636Z,16.65
2019-03-06T14:31:33.270Z,17.02
2019-03-06T14:34:26.913Z,17.14
2019-03-06T14:37:15.713Z,17.22
2019-03-06T14:50:30.910Z,15.10
2019-03-06T14:53:17.519Z,13.78
2019-03-06T14:56:58.878Z,13.02
2019-03-06T15:03:53.010Z,12.80
2019-03-06T15:06:39.936Z,12.88
2019-03-06T15:09:34.620Z,13.05
2019-03-06T15:12:24.227Z,12.90
2019-03-06T15:15:02.460Z,13.41
2019-03-06T15:18:10.138Z,13.35
2019-03-06T15:21:02.868Z,12.83
2019-03-06T15:24:05.944Z,12.60
2019-03-06T15:27:30.520Z,12.49
2019-03-06T15:30:21.208Z,12.65
2019-03-06T15:33:12.620Z,13.72
2019-03-06T15:40:18.732Z,13.38
2019-03-06T15:42:59.063Z,13.32
2019-03-06T15:45:44.002Z,13.62
2019-03-06T15:48:55.331Z,13.68
2019-03-06T15:51:43.137Z,13.78
2019-03-06T15:58:06.687Z,13.41
2019-03-06T16:01:29.201Z,13.19
2019-03-06T16:04:34.730Z,13.15
2019-03-06T16:07:28.047Z,12.98
2019-03-06T16:14:00.017Z,12.59
2019-03-06T16:20:57.695Z,12.62
2019-03-06T16:24:19.908Z,12.44
2019-03-06T16:31:05.044Z,12.33
2019-03-06T16:33:54.876Z,12.30
2019-03-06T16:37:06.671Z,12.01
2019-03-06T16:40:17.513Z,11.73
2019-03-06T16:47:22.763Z,11.49
2019-03-06T16:50:02.373Z,11.65
2019-03-06T16:52:57.421Z,12.03
2019-03-06T16:56:22.446Z,12.05
2019-03-06T17:02:47.460Z,12.25
2019-03-06T17:05:40.865Z,12.38
2019-03-06T17:08:48.338Z,12.33
2019-03-06T17:11:33.521Z,12.35
2019-03-06T17:14:30.450Z,12.20
2019-03-06T17:18:03.144Z,12.08
2019-03-06T17:20:54.639Z,11.98
2019-03-06T17:23:38.678Z,11.97
2019-03-06T17:26:23.089Z,11.93
2019-03-06T17:29:38.035Z,12.09
2019-03-06T17:32:45.965Z,12.21
2019-03-06T17:35:47.384Z,12.30
2019-03-06T17:38:47.267Z,12.31
2019-03-06T17:41:21.835Z,12.42
2019-03-06T17:43:53.130Z,12.38
2019-03-06T17:46:22.919Z,12.27
2019-03-06T17:48:52.644Z,12.11
2019-03-06T17:51:22.404Z,12.14
2019-03-06T17:53:52.155Z,12.10
2019-03-06T17:56:21.969Z,12.08
2019-03-06T17:58:52.942Z,12.19
2019-03-06T18:01:22.796Z,12.18
2019-03-06T18:04:01.772Z,12.42
2019-03-06T18:06:31.578Z,12.64
2019-03-06T18:09:01.377Z,12.77
2019-03-06T18:11:31.160Z,12.77
2019-03-06T18:14:01.111Z,12.94
2019-03-06T18:16:30.852Z,13.09
2019-03-06T18:19:00.658Z,13.00
2019-03-06T18:21:30.516Z,12.97
2019-03-06T18:24:00.366Z,12.99
2019-03-06T18:26:30.205Z,12.81
2019-03-06T18:29:00.158Z,11.85
2019-03-06T18:31:29.929Z,12.11
2019-03-06T18:33:59.947Z,11.84
2019-03-06T18:36:29.678Z,11.65
2019-03-06T18:38:59.369Z,11.30
2019-03-06T18:41:29.143Z,11.78
2019-03-06T18:43:58.987Z,11.95
2019-03-06T18:46:29.057Z,11.95
2019-03-06T18:48:58.867Z,11.99
2019-03-06T18:51:28.749Z,12.00
2019-03-06T18:53:58.467Z,12.08
2019-03-06T18:56:28.216Z,12.11
2019-03-06T18:58:58.972Z,11.91
2019-03-06T19:01:29.017Z,11.85
2019-03-06T19:04:00.104Z,11.72
2019-03-06T19:06:31.354Z,11.55
2019-03-06T19:09:01.126Z,11.43
2019-03-06T19:11:31.207Z,11.37
2019-03-06T19:14:01.389Z,11.29
2019-03-06T19:16:31.620Z,11.30
2019-03-06T19:19:01.686Z,11.22
2019-03-06T19:21:31.562Z,11.17
2019-03-06T19:24:01.242Z,11.35
2019-03-06T19:26:31.480Z,11.45
2019-03-06T19:29:01.655Z,11.42
2019-03-06T19:31:31.512Z,11.39
2019-03-06T19:34:01.336Z,11.45
2019-03-06T19:36:31.179Z,11.53
2019-03-06T19:39:01.071Z,11.60
2019-03-06T19:41:31.066Z,11.44
2019-03-06T19:44:02.241Z,11.40
2019-03-06T19:46:32.026Z,11.38
2019-03-06T19:49:01.951Z,11.42
2019-03-06T19:51:31.932Z,11.33
2019-03-06T19:54:01.797Z,11.25
2019-03-06T19:56:31.846Z,11.38
2019-03-06T19:59:01.532Z,11.07
2019-03-06T20:01:32.565Z,10.71
2019-03-06T20:04:02.685Z,10.53
2019-03-06T20:06:32.479Z,10.54
2019-03-06T20:09:02.545Z,10.53
2019-03-06T20:11:32.328Z,10.44
2019-03-06T20:14:02.058Z,10.38
2019-03-06T20:16:31.838Z,10.30
2019-03-06T20:19:02.811Z,10.40
2019-03-06T20:21:32.642Z,10.19
2019-03-06T20:24:02.426Z,10.18
2019-03-06T20:26:32.295Z,10.05
2019-03-06T20:29:02.615Z,9.92
2019-03-06T20:31:32.482Z,9.90
2019-03-06T20:34:02.306Z,9.92
2019-03-06T20:36:32.046Z,9.78
2019-03-06T20:39:01.951Z,9.70
2019-03-06T20:41:31.867Z,9.53
2019-03-06T20:44:01.731Z,9.52
2019-03-06T20:46:31.475Z,9.49
2019-03-06T20:49:01.199Z,9.40
2019-03-06T20:51:31.165Z,9.45
2019-03-06T20:54:01.011Z,9.54
2019-03-06T20:56:30.752Z,9.58
2019-03-06T20:59:00.618Z,9.55
2019-03-06T21:01:30.783Z,9.50
2019-03-06T21:04:00.688Z,9.48
2019-03-06T21:06:34.613Z,9.51
2019-03-06T21:09:04.646Z,9.54
2019-03-06T21:11:36.406Z,9.61
2019-03-06T21:14:06.828Z,9.67
2019-03-06T21:16:36.720Z,9.77
2019-03-06T21:19:06.592Z,9.81
2019-03-06T21:21:36.467Z,9.71
2019-03-06T21:24:06.176Z,9.80
2019-03-06T21:26:36.038Z,9.61
2019-03-06T21:29:05.914Z,9.44
2019-03-06T21:31:35.937Z,9.36
2019-03-06T21:34:05.894Z,9.29
2019-03-06T21:36:35.538Z,9.26
2019-03-06T21:39:08.505Z,9.25
2019-03-06T21:41:38.807Z,9.26
2019-03-06T21:44:08.573Z,9.36
2019-03-06T21:46:39.204Z,9.45
2019-03-06T21:49:10.687Z,9.59
2019-03-06T21:51:40.505Z,9.37
2019-03-06T21:54:10.531Z,9.12
2019-03-06T21:56:40.554Z,8.84
2019-03-06T21:59:10.434Z,8.64
2019-03-06T22:01:40.466Z,8.43
2019-03-06T22:04:11.644Z,8.26
2019-03-06T22:06:42.621Z,8.25
2019-03-06T22:09:14.289Z,8.29
2019-03-06T22:11:44.048Z,8.30
2019-03-06T22:14:13.782Z,8.30
2019-03-06T22:16:43.521Z,8.31
2019-03-06T22:19:13.361Z,8.34
2019-03-06T22:21:43.342Z,8.47
2019-03-06T22:24:13.282Z,8.51
2019-03-06T22:26:43.110Z,8.41
2019-03-06T22:29:12.973Z,8.23
2019-03-06T22:31:42.719Z,8.16
2019-03-06T22:34:12.646Z,7.99
2019-03-06T22:36:42.395Z,7.80
2019-03-06T22:39:12.976Z,7.63
2019-03-06T22:41:42.813Z,7.56
2019-03-06T22:44:12.750Z,7.45
2019-03-06T22:46:42.614Z,7.42
2019-03-06T22:49:12.452Z,7.33
2019-03-06T22:51:42.491Z,7.25
2019-03-06T22:54:13.562Z,7.21
2019-03-06T22:56:43.528Z,7.11
2019-03-06T22:59:13.550Z,7.19
2019-03-06T23:01:44.560Z,7.21
2019-03-06T23:04:14.394Z,7.22
2019-03-06T23:06:44.245Z,7.26
2019-03-06T23:09:14.070Z,7.26
2019-03-06T23:11:44.342Z,7.28
2019-03-06T23:14:14.059Z,7.33
2019-03-06T23:16:44.037Z,7.31
2019-03-06T23:19:14.013Z,7.26
2019-03-06T23:21:43.708Z,7.24
2019-03-06T23:24:13.661Z,7.24
2019-03-06T23:26:43.442Z,7.24
2019-03-06T23:29:13.204Z,7.29
2019-03-06T23:31:43.373Z,7.27
2019-03-06T23:34:13.184Z,7.28
2019-03-06T23:36:42.918Z,7.16
2019-03-06T23:39:15.834Z,7.18
2019-03-06T23:41:45.811Z,7.31
2019-03-06T23:44:15.820Z,7.33
2019-03-06T23:46:45.781Z,7.32
2019-03-06T23:49:15.565Z,7.25
2019-03-06T23:52:02.660Z,7.23
2019-03-06T23:54:32.588Z,7.33
2019-03-06T23:57:02.215Z,7.30
2019-03-06T23:59:32.071Z,7.26
